Time;durP1;ratioP1;P1;durP2;ratioP2;P2;SDS_P1;SDS_P2;PMS_P1;PMS_P2;Temp;Humidity;BMP_temperature;BMP_pressure;BME280_temperature;BME280_humidity;BME280_pressure;Samples;Min_cycle;Max_cycle;Signal;HPM_P1;HPM_P2
2023/03/17 00:02:05;;;;;;;2.95;1.33;;;;;;;;;;5035743;28;20021;-65
2023/03/17 00:04:30;;;;;;;2.78;1.20;;;;;;;;;;5038483;28;20403;-65
2023/03/17 00:06:56;;;;;;;4.20;1.67;;;;;;;;;;5035123;28;20096;-65
2023/03/17 00:09:22;;;;;;;11.40;1.55;;;;;;;;;;5039096;28;20021;-65
2023/03/17 00:11:47;;;;;;;4.10;1.23;;;;;;;;;;5054151;28;20029;-65
2023/03/17 00:14:13;;;;;;;3.72;1.50;;;;;;;;;;5024360;28;20020;-65
2023/03/17 00:16:41;;;;;;;3.55;1.45;;;;;;;;;;5007053;28;20025;-66
2023/03/17 00:19:06;;;;;;;3.67;1.35;;;;;;;;;;5007781;28;20060;-66
2023/03/17 00:21:33;;;;;;;3.05;1.25;;;;;;;;;;4996756;28;20030;-66
2023/03/17 00:23:58;;;;;;;3.35;1.00;;;;;;;;;;4998582;28;20028;-66
2023/03/17 00:26:25;;;;;;;1.77;0.90;;;;;;;;;;5007318;28;20910;-66
2023/03/17 00:28:50;;;;;;;4.97;1.27;;;;;;;;;;5042609;28;20048;-66
2023/03/17 00:31:19;;;;;;;3.50;1.00;;;;;;;;;;5040937;28;20472;-65
2023/03/17 00:33:45;;;;;;;3.80;1.40;;;;;;;;;;5041029;28;20102;-65
2023/03/17 00:36:30;;;;;;;2.72;1.38;;;;;;;;;;5053521;28;20052;-65
2023/03/17 00:38:56;;;;;;;5.70;1.38;;;;;;;;;;5052191;28;20111;-65
2023/03/17 00:41:21;;;;;;;2.78;1.15;;;;;;;;;;5053459;28;20239;-66
2023/03/17 00:43:47;;;;;;;2.53;0.82;;;;;;;;;;5007464;28;20136;-66
2023/03/17 00:46:18;;;;;;;3.25;1.00;;;;;;;;;;5024082;28;20021;-65
2023/03/17 00:48:44;;;;;;;2.80;0.90;;;;;;;;;;5051638;28;20379;-65
2023/03/17 00:51:09;;;;;;;3.25;1.23;;;;;;;;;;5052991;28;20041;-65
2023/03/17 00:53:34;;;;;;;2.20;1.10;;;;;;;;;;5009914;28;20880;-66
2023/03/17 00:56:00;;;;;;;2.78;1.10;;;;;;;;;;5006470;28;20937;-66
2023/03/17 00:58:27;;;;;;;2.47;1.15;;;;;;;;;;5007723;28;20040;-66
2023/03/17 01:00:53;;;;;;;4.13;1.85;;;;;;;;;;5044746;28;20025;-66
2023/03/17 01:03:19;;;;;;;3.78;1.38;;;;;;;;;;5052001;28;20082;-65
2023/03/17 01:05:45;;;;;;;2.88;1.15;;;;;;;;;;5050455;28;20025;-65
2023/03/17 01:08:11;;;;;;;3.80;1.42;;;;;;;;;;5052491;28;20032;-65
2023/03/17 01:10:36;;;;;;;2.72;1.48;;;;;;;;;;5052216;28;20033;-65
2023/03/17 01:13:03;;;;;;;6.30;1.77;;;;;;;;;;5034216;28;20025;-65
2023/03/17 01:15:30;;;;;;;3.83;1.65;;;;;;;;;;5034544;28;20096;-65
2023/03/17 01:17:56;;;;;;;5.22;1.42;;;;;;;;;;5038521;28;20483;-65
2023/03/17 01:20:23;;;;;;;3.78;1.67;;;;;;;;;;5039751;28;20107;-65
2023/03/17 01:22:49;;;;;;;2.45;1.08;;;;;;;;;;5040553;28;20112;-65
2023/03/17 01:25:15;;;;;;;5.10;1.77;;;;;;;;;;5039338;28;20523;-65
2023/03/17 01:27:41;;;;;;;5.50;1.50;;;;;;;;;;5033243;28;20025;-65
2023/03/17 01:30:08;;;;;;;4.38;1.45;;;;;;;;;;5033663;28;20021;-65
2023/03/17 01:32:33;;;;;;;5.20;1.60;;;;;;;;;;5034285;28;20025;-66
2023/03/17 01:34:59;;;;;;;10.55;1.65;;;;;;;;;;5035680;28;20037;-65
2023/03/17 01:37:24;;;;;;;19.17;1.60;;;;;;;;;;5046725;28;20431;-66
2023/03/17 01:39:50;;;;;;;4.82;1.08;;;;;;;;;;5032894;28;20065;-66
2023/03/17 01:42:16;;;;;;;8.93;1.58;;;;;;;;;;5046062;28;20075;-65
2023/03/17 01:45:00;;;;;;;3.80;1.98;;;;;;;;;;5011327;28;20025;-65
2023/03/17 01:47:27;;;;;;;2.70;1.17;;;;;;;;;;5008466;28;20024;-65
2023/03/17 01:49:53;;;;;;;3.25;1.40;;;;;;;;;;5011937;28;20025;-64
2023/03/17 01:52:20;;;;;;;6.95;1.52;;;;;;;;;;5008409;28;20111;-63
2023/03/17 01:55:01;;;;;;;3.25;1.65;;;;;;;;;;5006024;28;20021;-64
2023/03/17 01:57:30;;;;;;;4.68;1.60;;;;;;;;;;5008680;28;20128;-64
2023/03/17 01:59:58;;;;;;;5.72;1.75;;;;;;;;;;5008614;28;20222;-64
2023/03/17 02:02:27;;;;;;;4.22;1.80;;;;;;;;;;5017508;28;20124;-64
2023/03/17 02:04:52;;;;;;;2.70;1.27;;;;;;;;;;5046476;28;20063;-64
2023/03/17 02:07:19;;;;;;;3.00;1.13;;;;;;;;;;5044181;28;20539;-64
2023/03/17 02:09:45;;;;;;;3.63;1.45;;;;;;;;;;5047446;28;20021;-64
2023/03/17 02:12:12;;;;;;;4.63;1.63;;;;;;;;;;5038775;28;20017;-64
2023/03/17 02:14:37;;;;;;;3.50;1.48;;;;;;;;;;5040589;28;20040;-64
2023/03/17 02:17:02;;;;;;;3.65;1.27;;;;;;;;;;5032289;28;20025;-64
2023/03/17 02:19:28;;;;;;;3.25;1.48;;;;;;;;;;5040906;28;20893;-64
2023/03/17 02:21:55;;;;;;;3.80;1.70;;;;;;;;;;5006871;28;20025;-64
2023/03/17 02:24:26;;;;;;;6.15;1.80;;;;;;;;;;5045601;28;20087;-64
2023/03/17 02:26:53;;;;;;;3.28;1.40;;;;;;;;;;5005189;28;20085;-64
2023/03/17 02:29:19;;;;;;;2.80;1.30;;;;;;;;;;5005935;28;20090;-64
2023/03/17 02:31:45;;;;;;;2.40;1.27;;;;;;;;;;5008920;28;20665;-64
2023/03/17 02:34:10;;;;;;;3.67;1.38;;;;;;;;;;5003952;28;20029;-64
2023/03/17 02:36:36;;;;;;;8.15;1.65;;;;;;;;;;5006572;28;20056;-64
2023/03/17 02:39:02;;;;;;;4.03;1.30;;;;;;;;;;5004792;28;20111;-64
2023/03/17 02:41:28;;;;;;;2.72;1.35;;;;;;;;;;5005871;28;20940;-64
2023/03/17 02:43:53;;;;;;;2.55;1.20;;;;;;;;;;5005958;28;20053;-64
2023/03/17 02:46:19;;;;;;;4.40;1.23;;;;;;;;;;5007135;28;20926;-64
2023/03/17 02:48:44;;;;;;;2.78;1.25;;;;;;;;;;5016378;28;20059;-64
2023/03/17 02:51:11;;;;;;;2.50;1.10;;;;;;;;;;5051460;28;20036;-64
2023/03/17 02:53:36;;;;;;;5.63;2.00;;;;;;;;;;5051913;28;20028;-65
2023/03/17 02:56:02;;;;;;;4.95;1.63;;;;;;;;;;5050789;28;20021;-63
2023/03/17 02:58:27;;;;;;;3.03;1.33;;;;;;;;;;5051574;28;20047;-63
2023/03/17 03:00:52;;;;;;;4.40;1.60;;;;;;;;;;5052781;28;20047;-67
2023/03/17 03:03:18;;;;;;;2.60;1.30;;;;;;;;;;5044437;28;20040;-66
2023/03/17 03:05:43;;;;;;;2.97;1.38;;;;;;;;;;5038394;28;20116;-63
2023/03/17 03:08:08;;;;;;;3.80;1.40;;;;;;;;;;5036931;28;20072;-63
2023/03/17 03:10:33;;;;;;;3.65;1.27;;;;;;;;;;5049908;28;20464;-63
2023/03/17 03:12:59;;;;;;;3.55;1.65;;;;;;;;;;5035810;28;20104;-63
2023/03/17 03:15:24;;;;;;;2.55;1.38;;;;;;;;;;5035802;28;20467;-63
2023/03/17 03:17:49;;;;;;;4.05;1.55;;;;;;;;;;5039224;28;20021;-63
2023/03/17 03:20:15;;;;;;;5.53;1.70;;;;;;;;;;5051503;28;20092;-65
2023/03/17 03:22:40;;;;;;;3.65;1.50;;;;;;;;;;5055295;28;20029;-63
2023/03/17 03:25:07;;;;;;;3.13;1.50;;;;;;;;;;5054996;28;20024;-63
2023/03/17 03:27:32;;;;;;;2.85;1.35;;;;;;;;;;5054964;28;20029;-63
2023/03/17 03:29:57;;;;;;;2.65;1.42;;;;;;;;;;5054722;28;20040;-63
2023/03/17 03:32:23;;;;;;;3.53;1.27;;;;;;;;;;5054312;28;20070;-63
2023/03/17 03:34:48;;;;;;;2.85;1.40;;;;;;;;;;5053698;28;20395;-64
2023/03/17 03:37:14;;;;;;;3.20;1.40;;;;;;;;;;5051082;28;20093;-64
2023/03/17 03:39:39;;;;;;;4.03;1.35;;;;;;;;;;5035039;28;20099;-64
2023/03/17 03:42:05;;;;;;;4.82;1.40;;;;;;;;;;5051161;28;20078;-64
2023/03/17 03:44:31;;;;;;;2.30;1.02;;;;;;;;;;5054604;28;20110;-64
2023/03/17 03:46:56;;;;;;;2.90;1.35;;;;;;;;;;5053829;28;20456;-66
2023/03/17 03:49:21;;;;;;;4.93;1.58;;;;;;;;;;5053766;28;20468;-63
2023/03/17 03:51:47;;;;;;;5.53;1.50;;;;;;;;;;5053020;28;20041;-63
2023/03/17 03:54:12;;;;;;;2.95;1.25;;;;;;;;;;5054646;28;20025;-64
2023/03/17 03:56:37;;;;;;;3.22;1.60;;;;;;;;;;5054493;28;20029;-65
2023/03/17 03:59:03;;;;;;;3.70;1.35;;;;;;;;;;5053861;28;20033;-65
2023/03/17 04:01:28;;;;;;;2.58;1.55;;;;;;;;;;5054242;28;20088;-64
2023/03/17 04:03:53;;;;;;;5.00;1.58;;;;;;;;;;5054425;28;20073;-63
2023/03/17 04:06:18;;;;;;;2.47;1.33;;;;;;;;;;5044422;28;20017;-64
2023/03/17 04:08:44;;;;;;;2.95;1.58;;;;;;;;;;4996175;28;20025;-64
2023/03/17 04:11:10;;;;;;;3.08;1.48;;;;;;;;;;5003492;28;20029;-64
2023/03/17 04:13:35;;;;;;;2.75;1.30;;;;;;;;;;4994017;28;20029;-64
2023/03/17 04:16:00;;;;;;;3.72;1.33;;;;;;;;;;5008130;28;20044;-64
2023/03/17 04:18:26;;;;;;;3.45;1.38;;;;;;;;;;5001191;28;20111;-64
2023/03/17 04:20:51;;;;;;;5.43;1.85;;;;;;;;;;4998585;28;20072;-64
2023/03/17 04:23:18;;;;;;;3.47;1.45;;;;;;;;;;5010087;28;20079;-64
2023/03/17 04:25:43;;;;;;;3.95;1.40;;;;;;;;;;5009625;28;20136;-64
2023/03/17 04:28:09;;;;;;;2.42;1.10;;;;;;;;;;5003889;28;20079;-64
2023/03/17 04:30:35;;;;;;;3.63;1.70;;;;;;;;;;5010508;28;20569;-64
2023/03/17 04:33:00;;;;;;;3.63;1.08;;;;;;;;;;5008595;28;20854;-64
2023/03/17 04:35:26;;;;;;;5.65;1.42;;;;;;;;;;5019544;28;20048;-64
2023/03/17 04:37:51;;;;;;;7.07;1.60;;;;;;;;;;5046744;28;20479;-65
2023/03/17 04:40:17;;;;;;;3.65;1.60;;;;;;;;;;5033687;28;20059;-64
2023/03/17 04:42:42;;;;;;;6.18;1.63;;;;;;;;;;5047304;28;20052;-63
2023/03/17 04:45:09;;;;;;;5.75;1.70;;;;;;;;;;5045297;28;20056;-65
2023/03/17 04:47:34;;;;;;;4.35;1.45;;;;;;;;;;5048351;28;20026;-65
2023/03/17 04:50:00;;;;;;;3.17;1.38;;;;;;;;;;5033946;28;20462;-66
2023/03/17 04:52:25;;;;;;;3.00;1.23;;;;;;;;;;5034168;28;20060;-66
2023/03/17 04:54:51;;;;;;;6.60;1.70;;;;;;;;;;5043738;28;20104;-65
2023/03/17 04:57:16;;;;;;;4.90;1.80;;;;;;;;;;5036608;28;20017;-66
2023/03/17 04:59:41;;;;;;;2.85;1.27;;;;;;;;;;5034494;28;20025;-65
2023/03/17 05:02:07;;;;;;;2.88;1.23;;;;;;;;;;5035709;28;20067;-65
2023/03/17 05:04:32;;;;;;;2.15;1.05;;;;;;;;;;5034191;28;20025;-65
2023/03/17 05:06:57;;;;;;;2.58;1.38;;;;;;;;;;5039140;28;20027;-65
2023/03/17 05:09:23;;;;;;;3.15;1.30;;;;;;;;;;5047083;28;20471;-65
2023/03/17 05:11:48;;;;;;;4.53;1.65;;;;;;;;;;5045461;28;20072;-65
2023/03/17 05:14:14;;;;;;;6.40;1.42;;;;;;;;;;5044364;28;20021;-65
2023/03/17 05:16:39;;;;;;;2.80;1.23;;;;;;;;;;5044686;28;20037;-65
2023/03/17 05:19:05;;;;;;;3.65;1.58;;;;;;;;;;5043559;28;20028;-65
2023/03/17 05:21:30;;;;;;;3.42;1.50;;;;;;;;;;5044737;28;20479;-65
2023/03/17 05:23:56;;;;;;;10.23;1.63;;;;;;;;;;5043441;28;20075;-65
2023/03/17 05:26:21;;;;;;;5.30;1.67;;;;;;;;;;5044606;28;20013;-65
2023/03/17 05:28:47;;;;;;;3.05;1.55;;;;;;;;;;5051903;28;20032;-65
2023/03/17 05:31:13;;;;;;;3.13;1.38;;;;;;;;;;5046017;28;20967;-65
2023/03/17 05:33:38;;;;;;;7.72;1.67;;;;;;;;;;5039701;28;20028;-65
2023/03/17 05:36:04;;;;;;;5.35;1.92;;;;;;;;;;5033166;28;20020;-65
2023/03/17 05:38:29;;;;;;;3.17;1.58;;;;;;;;;;5033150;28;20025;-65
2023/03/17 05:40:54;;;;;;;2.08;1.13;;;;;;;;;;5033451;28;20040;-65
2023/03/17 05:43:20;;;;;;;2.42;1.20;;;;;;;;;;5039232;28;20041;-65
2023/03/17 05:45:46;;;;;;;9.40;1.77;;;;;;;;;;5031480;28;20025;-65
2023/03/17 05:48:12;;;;;;;5.03;1.85;;;;;;;;;;5006905;28;20047;-65
2023/03/17 05:50:37;;;;;;;3.40;1.40;;;;;;;;;;5007147;28;20029;-65
2023/03/17 05:53:02;;;;;;;3.63;1.35;;;;;;;;;;5004924;28;20136;-65
2023/03/17 05:55:28;;;;;;;4.95;1.67;;;;;;;;;;5017510;28;20121;-65
2023/03/17 05:57:53;;;;;;;2.90;1.45;;;;;;;;;;5004776;28;20031;-65
2023/03/17 06:00:20;;;;;;;4.00;1.30;;;;;;;;;;5004692;28;20128;-65
2023/03/17 06:02:45;;;;;;;4.20;1.52;;;;;;;;;;5007312;28;20025;-65
2023/03/17 06:05:12;;;;;;;4.32;1.77;;;;;;;;;;5008527;28;20075;-65
2023/03/17 06:07:37;;;;;;;3.47;1.55;;;;;;;;;;5017809;28;20025;-65
2023/03/17 06:10:03;;;;;;;4.70;1.58;;;;;;;;;;5048815;28;20025;-65
2023/03/17 06:12:28;;;;;;;4.28;1.83;;;;;;;;;;5035432;28;20104;-65
2023/03/17 06:14:53;;;;;;;3.35;1.35;;;;;;;;;;5027195;28;20033;-65
2023/03/17 06:17:18;;;;;;;6.40;1.45;;;;;;;;;;5031293;28;20430;-65
2023/03/17 06:19:44;;;;;;;6.22;1.38;;;;;;;;;;5032800;28;20028;-65
2023/03/17 06:22:09;;;;;;;2.75;1.52;;;;;;;;;;5032895;28;20033;-65
2023/03/17 06:24:35;;;;;;;2.95;1.35;;;;;;;;;;5032776;28;20090;-65
2023/03/17 06:27:00;;;;;;;3.75;2.13;;;;;;;;;;5047902;28;20107;-66
2023/03/17 06:29:27;;;;;;;5.05;1.27;;;;;;;;;;5051732;28;20096;-65
2023/03/17 06:31:52;;;;;;;4.95;1.42;;;;;;;;;;5048434;28;20030;-65
2023/03/17 06:34:17;;;;;;;3.50;1.55;;;;;;;;;;5048637;28;20025;-65
2023/03/17 06:36:44;;;;;;;5.38;1.77;;;;;;;;;;5047271;28;20033;-65
2023/03/17 06:39:09;;;;;;;4.80;1.63;;;;;;;;;;5052191;28;20043;-65
2023/03/17 06:41:35;;;;;;;5.22;2.05;;;;;;;;;;5011395;28;20021;-65
2023/03/17 06:44:00;;;;;;;4.32;1.83;;;;;;;;;;5005737;28;20810;-64
2023/03/17 06:46:26;;;;;;;2.83;1.25;;;;;;;;;;5009886;28;20029;-64
2023/03/17 06:48:51;;;;;;;4.53;1.70;;;;;;;;;;5019557;28;20894;-64
2023/03/17 06:51:16;;;;;;;6.95;1.58;;;;;;;;;;5006705;28;20222;-65
2023/03/17 06:53:42;;;;;;;3.70;1.55;;;;;;;;;;5012666;28;20049;-64
2023/03/17 06:56:08;;;;;;;3.80;1.50;;;;;;;;;;5014471;28;20353;-64
2023/03/17 06:58:33;;;;;;;3.90;1.90;;;;;;;;;;5052229;28;20047;-66
2023/03/17 07:00:59;;;;;;;6.43;2.15;;;;;;;;;;5048641;28;20045;-65
2023/03/17 07:03:25;;;;;;;3.60;1.70;;;;;;;;;;5055316;28;20021;-66
2023/03/17 07:05:51;;;;;;;3.65;1.38;;;;;;;;;;5055371;28;20033;-65
2023/03/17 07:08:16;;;;;;;2.83;1.50;;;;;;;;;;5048339;28;20079;-66
2023/03/17 07:10:42;;;;;;;3.35;1.30;;;;;;;;;;5050914;28;20033;-65
2023/03/17 07:13:09;;;;;;;4.65;2.08;;;;;;;;;;5052102;28;20374;-64
2023/03/17 07:15:34;;;;;;;4.07;1.40;;;;;;;;;;5052020;28;20450;-64
2023/03/17 07:18:00;;;;;;;2.50;1.38;;;;;;;;;;5045898;28;20069;-65
2023/03/17 07:20:25;;;;;;;5.55;1.58;;;;;;;;;;5047197;28;20021;-65
2023/03/17 07:22:51;;;;;;;3.13;1.48;;;;;;;;;;5046110;28;20086;-66
2023/03/17 07:25:16;;;;;;;3.83;1.67;;;;;;;;;;5054012;28;20025;-66
2023/03/17 07:27:41;;;;;;;3.17;1.48;;;;;;;;;;5043889;28;20115;-66
2023/03/17 07:30:07;;;;;;;5.20;1.85;;;;;;;;;;5041787;28;20036;-66
2023/03/17 07:32:34;;;;;;;3.70;1.60;;;;;;;;;;5038325;28;20383;-65
2023/03/17 07:34:59;;;;;;;3.90;1.60;;;;;;;;;;5038963;28;20147;-65
2023/03/17 07:37:24;;;;;;;2.92;1.40;;;;;;;;;;5037813;28;20108;-66
2023/03/17 07:39:50;;;;;;;5.13;1.83;;;;;;;;;;5041433;28;20025;-65
2023/03/17 07:42:16;;;;;;;3.92;1.38;;;;;;;;;;5037420;28;20472;-65
2023/03/17 07:44:41;;;;;;;3.90;1.55;;;;;;;;;;5043719;28;20434;-65
2023/03/17 07:47:07;;;;;;;5.30;1.50;;;;;;;;;;5045790;28;20025;-66
2023/03/17 07:49:32;;;;;;;3.75;2.10;;;;;;;;;;5053193;28;20100;-64
2023/03/17 07:51:58;;;;;;;3.50;1.50;;;;;;;;;;5052951;28;20033;-64
2023/03/17 07:54:25;;;;;;;3.08;1.67;;;;;;;;;;5053199;28;20021;-64
2023/03/17 07:56:51;;;;;;;6.50;1.75;;;;;;;;;;5049231;28;20104;-64
2023/03/17 07:59:17;;;;;;;5.18;1.38;;;;;;;;;;5050040;28;20103;-64
2023/03/17 08:01:43;;;;;;;5.15;1.40;;;;;;;;;;5045444;28;20033;-66
2023/03/17 08:04:11;;;;;;;5.43;1.75;;;;;;;;;;5049534;28;20048;-64
2023/03/17 08:06:37;;;;;;;5.45;2.15;;;;;;;;;;5049471;28;20020;-66
2023/03/17 08:09:02;;;;;;;5.43;1.38;;;;;;;;;;5053688;28;20087;-64
2023/03/17 08:11:27;;;;;;;4.53;1.67;;;;;;;;;;5049827;28;20013;-65
2023/03/17 08:13:53;;;;;;;4.28;1.63;;;;;;;;;;5049891;28;20383;-65
2023/03/17 08:16:19;;;;;;;4.18;1.80;;;;;;;;;;5054213;28;20017;-65
2023/03/17 08:18:44;;;;;;;5.65;2.13;;;;;;;;;;5049559;28;20036;-65
2023/03/17 08:21:09;;;;;;;6.90;1.80;;;;;;;;;;5048894;28;20021;-64
2023/03/17 08:23:35;;;;;;;3.88;1.98;;;;;;;;;;5049076;28;20607;-65
2023/03/17 08:26:02;;;;;;;6.10;1.60;;;;;;;;;;5045433;28;20037;-64
2023/03/17 08:28:27;;;;;;;4.70;1.85;;;;;;;;;;5043131;28;20391;-64
2023/03/17 08:30:53;;;;;;;3.50;1.60;;;;;;;;;;5037583;28;20022;-64
2023/03/17 08:33:18;;;;;;;3.33;1.67;;;;;;;;;;5032402;28;20119;-65
2023/03/17 08:35:44;;;;;;;2.92;1.58;;;;;;;;;;5046795;28;20017;-65
2023/03/17 08:38:10;;;;;;;2.83;1.55;;;;;;;;;;5033833;28;20229;-65
2023/03/17 08:40:35;;;;;;;3.75;1.50;;;;;;;;;;5039726;28;20025;-65
2023/03/17 08:43:01;;;;;;;5.57;2.05;;;;;;;;;;5053967;28;20033;-65
2023/03/17 08:45:26;;;;;;;4.43;2.15;;;;;;;;;;5040475;28;20041;-65
2023/03/17 08:47:52;;;;;;;4.85;1.98;;;;;;;;;;5046835;28;20066;-65
2023/03/17 08:50:19;;;;;;;4.10;2.00;;;;;;;;;;5046127;28;20506;-65
2023/03/17 08:52:45;;;;;;;6.85;2.40;;;;;;;;;;5045785;28;20033;-65
2023/03/17 08:55:11;;;;;;;8.07;2.10;;;;;;;;;;5040660;28;20095;-65
2023/03/17 08:57:36;;;;;;;2.50;1.40;;;;;;;;;;5045622;28;20029;-66
2023/03/17 09:00:09;;;;;;;2.45;1.50;;;;;;;;;;5043734;28;20383;-66
2023/03/17 09:02:35;;;;;;;7.88;2.15;;;;;;;;;;5044545;28;20035;-65
2023/03/17 09:05:01;;;;;;;5.15;1.70;;;;;;;;;;5049634;28;20120;-65
2023/03/17 09:07:26;;;;;;;3.53;1.88;;;;;;;;;;5047102;28;20475;-65
2023/03/17 09:09:52;;;;;;;4.80;1.90;;;;;;;;;;5051857;28;20028;-66
2023/03/17 09:12:17;;;;;;;4.45;2.03;;;;;;;;;;5015987;28;20025;-65
2023/03/17 09:14:43;;;;;;;3.72;1.55;;;;;;;;;;5025652;28;20029;-65
2023/03/17 09:17:09;;;;;;;6.22;2.10;;;;;;;;;;5008842;28;20079;-65
2023/03/17 09:19:35;;;;;;;5.13;1.67;;;;;;;;;;5015163;28;20025;-65
2023/03/17 09:22:01;;;;;;;4.22;1.95;;;;;;;;;;5050344;28;20494;-65
2023/03/17 09:24:27;;;;;;;3.72;2.00;;;;;;;;;;5049493;28;20039;-65
2023/03/17 09:26:52;;;;;;;3.50;1.88;;;;;;;;;;5050055;28;20107;-65
2023/03/17 09:29:18;;;;;;;5.47;1.90;;;;;;;;;;5050170;28;20047;-65
2023/03/17 09:31:43;;;;;;;3.92;2.30;;;;;;;;;;5048442;28;20026;-65
2023/03/17 09:34:09;;;;;;;4.68;1.90;;;;;;;;;;5038683;28;20493;-65
2023/03/17 09:36:34;;;;;;;9.45;2.22;;;;;;;;;;5038887;28;20025;-65
2023/03/17 09:38:59;;;;;;;5.50;2.00;;;;;;;;;;5051483;28;20128;-65
2023/03/17 09:41:28;;;;;;;3.05;1.85;;;;;;;;;;5052061;28;20471;-65
2023/03/17 09:44:11;;;;;;;5.25;2.03;;;;;;;;;;5050293;28;20047;-65
2023/03/17 09:46:36;;;;;;;5.15;1.95;;;;;;;;;;5050675;28;20112;-65
2023/03/17 09:49:06;;;;;;;3.53;1.45;;;;;;;;;;5051045;28;20121;-65
2023/03/17 09:51:32;;;;;;;3.95;2.08;;;;;;;;;;5038652;28;20391;-65
2023/03/17 09:54:01;;;;;;;3.95;1.83;;;;;;;;;;5039071;28;20116;-65
2023/03/17 09:56:27;;;;;;;4.05;2.20;;;;;;;;;;5032245;28;20025;-65
2023/03/17 09:58:56;;;;;;;4.53;2.28;;;;;;;;;;5032512;28;20571;-65
2023/03/17 10:01:21;;;;;;;4.38;1.90;;;;;;;;;;5040325;28;20053;-65
2023/03/17 10:03:49;;;;;;;5.55;1.95;;;;;;;;;;5031728;28;20025;-65
2023/03/17 10:06:26;;;;;;;3.55;1.75;;;;;;;;;;5037690;28;20028;-65
2023/03/17 10:09:04;;;;;;;5.35;1.90;;;;;;;;;;5036493;28;20388;-65
2023/03/17 10:11:33;;;;;;;2.72;1.38;;;;;;;;;;5039784;28;20274;-65
2023/03/17 10:14:22;;;;;;;4.90;1.42;;;;;;;;;;5007749;28;20923;-65
2023/03/17 10:16:53;;;;;;;4.30;2.20;;;;;;;;;;5040269;28;20178;-65
2023/03/17 10:19:39;;;;;;;6.32;2.10;;;;;;;;;;5053142;28;20029;-65
2023/03/17 10:22:10;;;;;;;13.82;1.88;;;;;;;;;;5053022;28;20545;-65
2023/03/17 10:24:42;;;;;;;4.47;1.90;;;;;;;;;;5052414;28;20419;-64
2023/03/17 10:27:10;;;;;;;5.70;2.30;;;;;;;;;;5052609;28;20021;-65
2023/03/17 10:29:35;;;;;;;8.65;2.33;;;;;;;;;;5044550;28;20522;-65
2023/03/17 10:32:01;;;;;;;4.15;1.80;;;;;;;;;;5036903;28;20045;-65
2023/03/17 10:34:31;;;;;;;3.85;1.98;;;;;;;;;;5037463;28;20032;-65
2023/03/17 10:37:02;;;;;;;4.43;1.95;;;;;;;;;;5036370;28;20021;-65
2023/03/17 10:39:28;;;;;;;5.35;1.70;;;;;;;;;;5042275;28;20017;-65
2023/03/17 10:41:55;;;;;;;4.60;1.73;;;;;;;;;;5040092;28;20444;-65
2023/03/17 10:44:29;;;;;;;3.28;1.52;;;;;;;;;;5042427;28;20128;-65
2023/03/17 10:46:55;;;;;;;7.07;1.70;;;;;;;;;;5040096;28;20075;-65
2023/03/17 10:49:23;;;;;;;7.88;2.40;;;;;;;;;;5039665;28;20367;-65
2023/03/17 10:51:50;;;;;;;7.95;1.80;;;;;;;;;;5042500;28;20171;-65
2023/03/17 10:54:16;;;;;;;4.93;1.77;;;;;;;;;;5041118;28;20116;-65
2023/03/17 10:56:43;;;;;;;5.38;2.33;;;;;;;;;;5052328;28;20024;-65
2023/03/17 10:59:19;;;;;;;3.42;1.73;;;;;;;;;;5052891;28;20037;-65
2023/03/17 11:01:52;;;;;;;5.75;1.85;;;;;;;;;;5044458;28;20021;-65
2023/03/17 11:04:35;;;;;;;4.63;1.88;;;;;;;;;;5052352;28;20087;-65
2023/03/17 11:07:05;;;;;;;5.68;2.40;;;;;;;;;;5053623;28;20454;-65
2023/03/17 11:09:33;;;;;;;3.78;1.70;;;;;;;;;;5054232;28;20029;-65
2023/03/17 11:12:01;;;;;;;4.35;1.80;;;;;;;;;;5053825;28;20453;-65
2023/03/17 11:14:27;;;;;;;6.35;2.15;;;;;;;;;;5054212;28;20530;-65
2023/03/17 11:16:55;;;;;;;4.68;2.03;;;;;;;;;;5053386;28;20111;-65
2023/03/17 11:19:41;;;;;;;4.15;1.58;;;;;;;;;;5053637;28;20057;-65
2023/03/17 11:22:06;;;;;;;3.88;2.00;;;;;;;;;;5035367;28;20049;-65
2023/03/17 11:24:35;;;;;;;5.07;2.00;;;;;;;;;;5054652;28;20090;-65
2023/03/17 11:27:19;;;;;;;3.65;1.70;;;;;;;;;;5053928;28;20341;-66
2023/03/17 11:29:56;;;;;;;4.35;1.45;;;;;;;;;;5044023;28;20039;-66
2023/03/17 11:32:28;;;;;;;3.75;1.50;;;;;;;;;;5037441;28;20068;-65
2023/03/17 11:35:07;;;;;;;4.38;1.48;;;;;;;;;;5038344;28;20032;-65
2023/03/17 11:37:41;;;;;;;6.63;2.00;;;;;;;;;;5037095;28;20029;-66
2023/03/17 11:40:09;;;;;;;3.15;1.45;;;;;;;;;;5047594;28;20516;-65
2023/03/17 11:42:37;;;;;;;7.75;2.10;;;;;;;;;;5033955;28;20034;-65
2023/03/17 11:45:14;;;;;;;6.95;2.00;;;;;;;;;;5045205;28;20024;-65
2023/03/17 11:47:52;;;;;;;6.57;1.92;;;;;;;;;;5039748;28;20691;-66
2023/03/17 11:50:39;;;;;;;5.97;1.85;;;;;;;;;;5023608;28;20025;-66
2023/03/17 11:53:20;;;;;;;9.55;2.10;;;;;;;;;;5035650;28;20018;-66
2023/03/17 11:56:04;;;;;;;4.45;1.77;;;;;;;;;;5040113;28;20049;-65
2023/03/17 11:58:38;;;;;;;3.93;2.00;;;;;;;;;;5034239;28;20052;-66
2023/03/17 12:01:07;;;;;;;3.80;2.15;;;;;;;;;;5046399;28;20041;-66
2023/03/17 12:03:37;;;;;;;4.88;1.92;;;;;;;;;;5044219;28;20043;-66
2023/03/17 12:06:05;;;;;;;3.63;1.67;;;;;;;;;;5036925;28;20075;-65
2023/03/17 12:08:36;;;;;;;4.18;1.98;;;;;;;;;;5034850;28;20030;-66
2023/03/17 12:11:05;;;;;;;6.47;2.33;;;;;;;;;;5051675;28;20126;-65
2023/03/17 12:13:38;;;;;;;5.47;2.30;;;;;;;;;;5053630;28;20017;-65
2023/03/17 12:16:08;;;;;;;6.75;3.13;;;;;;;;;;5044187;28;20055;-66
2023/03/17 12:18:36;;;;;;;5.82;2.25;;;;;;;;;;5033621;28;20026;-65
2023/03/17 12:21:07;;;;;;;6.35;2.20;;;;;;;;;;5046345;28;20025;-65
2023/03/17 12:23:51;;;;;;;6.82;2.08;;;;;;;;;;5034389;28;20448;-65
2023/03/17 12:26:32;;;;;;;3.47;1.80;;;;;;;;;;5039338;28;20037;-66
2023/03/17 12:29:15;;;;;;;8.32;2.75;;;;;;;;;;5040866;28;20120;-66
2023/03/17 12:31:47;;;;;;;10.63;2.95;;;;;;;;;;5052822;28;20040;-65
2023/03/17 12:34:21;;;;;;;8.10;2.83;;;;;;;;;;5047903;28;20052;-65
2023/03/17 12:36:47;;;;;;;5.57;2.58;;;;;;;;;;5006914;28;20082;-66
2023/03/17 12:39:32;;;;;;;7.25;2.22;;;;;;;;;;5006051;28;20017;-66
2023/03/17 12:42:04;;;;;;;5.40;2.15;;;;;;;;;;5007521;28;20090;-66
2023/03/17 12:44:38;;;;;;;6.88;2.40;;;;;;;;;;5028620;28;20077;-66
2023/03/17 12:47:22;;;;;;;6.45;2.50;;;;;;;;;;5038607;28;20025;-66
2023/03/17 12:49:50;;;;;;;6.83;2.00;;;;;;;;;;5045212;28;20029;-66
2023/03/17 12:52:32;;;;;;;5.32;1.98;;;;;;;;;;5038776;28;20032;-66
2023/03/17 12:55:00;;;;;;;5.43;2.35;;;;;;;;;;5042308;28;20029;-65
2023/03/17 12:57:35;;;;;;;5.38;1.92;;;;;;;;;;5045335;28;20053;-66
2023/03/17 13:00:14;;;;;;;6.38;2.10;;;;;;;;;;5046389;28;20072;-65
2023/03/17 13:02:39;;;;;;;5.45;2.13;;;;;;;;;;5048886;28;20056;-66
2023/03/17 13:05:07;;;;;;;4.68;2.10;;;;;;;;;;5042217;28;20032;-66
2023/03/17 13:07:36;;;;;;;4.65;1.67;;;;;;;;;;5041362;28;20055;-66
2023/03/17 13:10:02;;;;;;;9.32;2.53;;;;;;;;;;5046886;28;20055;-66
2023/03/17 13:12:33;;;;;;;5.90;2.20;;;;;;;;;;5038912;28;20415;-66
2023/03/17 13:14:58;;;;;;;6.07;1.73;;;;;;;;;;5051546;28;20287;-65
2023/03/17 13:17:27;;;;;;;5.60;1.65;;;;;;;;;;5052201;28;20028;-66
2023/03/17 13:20:08;;;;;;;5.53;1.92;;;;;;;;;;5048622;28;20025;-66
2023/03/17 13:22:34;;;;;;;6.65;2.25;;;;;;;;;;5041933;28;20383;-66
2023/03/17 13:25:18;;;;;;;5.35;2.15;;;;;;;;;;5043525;28;20041;-66
2023/03/17 13:27:44;;;;;;;5.53;2.40;;;;;;;;;;5043181;28;20557;-65
2023/03/17 13:30:21;;;;;;;2.95;1.92;;;;;;;;;;5045403;28;20033;-66
2023/03/17 13:33:01;;;;;;;4.47;1.73;;;;;;;;;;5052901;28;20032;-66
2023/03/17 13:35:35;;;;;;;4.05;1.83;;;;;;;;;;5051452;28;20021;-66
2023/03/17 13:38:00;;;;;;;;;;;;;;;;;;5051171;28;20539;-67
2023/03/17 13:40:34;;;;;;;7.57;1.70;;;;;;;;;;5050931;28;20007;-66
2023/03/17 13:43:15;;;;;;;4.88;2.38;;;;;;;;;;5050198;28;20279;-66
2023/03/17 13:45:43;;;;;;;4.65;2.03;;;;;;;;;;5049303;28;20488;-66
2023/03/17 13:48:27;;;;;;;4.78;2.08;;;;;;;;;;5048123;28;20025;-67
2023/03/17 13:50:56;;;;;;;5.25;1.90;;;;;;;;;;5047590;28;20061;-66
2023/03/17 13:53:23;;;;;;;4.28;1.58;;;;;;;;;;5050589;28;20025;-66
2023/03/17 13:56:15;;;;;;;6.35;1.77;;;;;;;;;;5019234;28;20071;-66
2023/03/17 13:58:52;;;;;;;4.78;2.20;;;;;;;;;;5040162;28;20392;-65
2023/03/17 14:01:18;;;;;;;5.20;2.13;;;;;;;;;;5048529;28;20432;-66
2023/03/17 14:03:47;;;;;;;7.00;2.30;;;;;;;;;;5050915;28;20116;-66
2023/03/17 14:06:13;;;;;;;6.57;2.05;;;;;;;;;;5049341;28;20029;-66
2023/03/17 14:08:47;;;;;;;5.15;1.70;;;;;;;;;;5050942;28;20471;-65
2023/03/17 14:11:18;;;;;;;9.98;2.35;;;;;;;;;;5050396;28;20041;-66
2023/03/17 14:13:46;;;;;;;3.53;1.70;;;;;;;;;;5051268;28;20111;-66
2023/03/17 14:16:14;;;;;;;5.40;1.98;;;;;;;;;;5050125;28;20107;-66
2023/03/17 14:18:52;;;;;;;4.68;2.25;;;;;;;;;;5049532;28;20054;-66
2023/03/17 14:21:38;;;;;;;4.05;2.10;;;;;;;;;;5039908;28;20025;-66
2023/03/17 14:24:16;;;;;;;4.20;1.92;;;;;;;;;;5050063;28;20125;-65
2023/03/17 14:26:41;;;;;;;6.70;1.98;;;;;;;;;;5051446;28;20383;-65
2023/03/17 14:29:12;;;;;;;3.58;2.05;;;;;;;;;;5043287;28;20032;-66
2023/03/17 14:31:38;;;;;;;7.60;2.60;;;;;;;;;;5033789;28;20049;-65
2023/03/17 14:34:06;;;;;;;5.37;2.47;;;;;;;;;;5040987;28;20119;-67
2023/03/17 14:36:31;;;;;;;4.18;1.95;;;;;;;;;;5040277;28;20283;-66
2023/03/17 14:38:57;;;;;;;7.05;2.55;;;;;;;;;;5034211;28;20029;-66
2023/03/17 14:41:24;;;;;;;7.35;2.40;;;;;;;;;;5036433;28;20217;-66
2023/03/17 14:43:51;;;;;;;7.88;2.58;;;;;;;;;;5044704;28;20026;-65
2023/03/17 14:46:36;;;;;;;9.45;1.83;;;;;;;;;;5034827;28;20032;-65
2023/03/17 14:49:15;;;;;;;3.08;1.77;;;;;;;;;;5033242;28;20040;-65